Time;durP1;ratioP1;P1;durP2;ratioP2;P2;SDS_P1;SDS_P2;PMS_P1;PMS_P2;Temp;Humidity;BMP_temperature;BMP_pressure;BME280_temperature;BME280_humidity;BME280_pressure;Samples;Min_cycle;Max_cycle;Signal;HPM_P1;HPM_P2
2023/08/08 00:00:48;;;;;;;8.10;4.60;;;;;;;;;;5114943;28;20062;-82
2023/08/08 00:03:15;;;;;;;10.18;5.75;;;;;;;;;;5115019;28;20104;-82
2023/08/08 00:05:43;;;;;;;10.02;4.28;;;;;;;;;;5117759;28;20515;-83
2023/08/08 00:08:10;;;;;;;6.97;4.32;;;;;;;;;;5117997;28;20051;-83
2023/08/08 00:10:37;;;;;;;11.13;4.25;;;;;;;;;;5117076;28;20047;-84
2023/08/08 00:13:04;;;;;;;7.68;4.78;;;;;;;;;;5117060;28;20062;-83
2023/08/08 00:15:32;;;;;;;4.75;4.18;;;;;;;;;;5116875;28;20532;-83
2023/08/08 00:18:00;;;;;;;9.10;4.75;;;;;;;;;;5117368;28;20044;-83
2023/08/08 00:20:27;;;;;;;8.98;4.55;;;;;;;;;;5117310;28;20075;-83
2023/08/08 00:22:54;;;;;;;7.30;4.85;;;;;;;;;;5119318;28;20055;-82
2023/08/08 00:25:21;;;;;;;4.72;4.28;;;;;;;;;;5119129;28;20530;-82
2023/08/08 00:27:50;;;;;;;4.40;3.90;;;;;;;;;;5118378;28;20052;-82
2023/08/08 00:30:17;;;;;;;7.68;3.67;;;;;;;;;;5118446;28;20056;-81
2023/08/08 00:32:44;;;;;;;7.50;3.65;;;;;;;;;;5118685;28;20064;-83
2023/08/08 00:35:12;;;;;;;4.28;3.67;;;;;;;;;;5118098;28;20075;-83
2023/08/08 00:37:39;;;;;;;5.53;4.03;;;;;;;;;;5117543;28;20458;-84
2023/08/08 00:40:06;;;;;;;9.70;4.10;;;;;;;;;;5116956;28;20043;-81
2023/08/08 00:42:34;;;;;;;4.95;3.90;;;;;;;;;;5116822;28;20059;-82
2023/08/08 00:45:04;;;;;;;11.48;5.50;;;;;;;;;;5118145;28;20048;-83
2023/08/08 00:47:34;;;;;;;6.60;4.30;;;;;;;;;;5117774;28;20048;-83
2023/08/08 00:50:03;;;;;;;6.68;4.43;;;;;;;;;;5115987;28;20054;-82
2023/08/08 00:52:30;;;;;;;6.22;4.75;;;;;;;;;;5116380;28;20104;-83
2023/08/08 00:54:57;;;;;;;9.25;4.90;;;;;;;;;;5116658;28;20082;-82
2023/08/08 00:57:25;;;;;;;5.10;4.60;;;;;;;;;;5116128;28;20043;-82
2023/08/08 00:59:52;;;;;;;8.75;4.80;;;;;;;;;;5116835;28;20055;-82
2023/08/08 01:02:19;;;;;;;6.85;4.32;;;;;;;;;;5115385;28;20048;-82
2023/08/08 01:04:47;;;;;;;6.57;3.97;;;;;;;;;;5114938;28;20096;-81
2023/08/08 01:07:24;;;;;;;7.50;3.72;;;;;;;;;;5115124;27;20051;-82
2023/08/08 01:09:55;;;;;;;8.48;4.47;;;;;;;;;;5115568;28;20043;-82
2023/08/08 01:12:24;;;;;;;4.95;3.97;;;;;;;;;;5114658;28;20044;-83
2023/08/08 01:14:52;;;;;;;8.57;4.80;;;;;;;;;;5114141;28;20040;-82
2023/08/08 01:17:20;;;;;;;7.05;4.20;;;;;;;;;;5115463;28;20044;-81
2023/08/08 01:19:47;;;;;;;16.85;5.60;;;;;;;;;;5113909;28;20058;-82
2023/08/08 01:22:24;;;;;;;6.03;4.57;;;;;;;;;;5115084;28;20405;-83
2023/08/08 01:24:51;;;;;;;7.10;5.10;;;;;;;;;;5114195;28;20058;-82
2023/08/08 01:27:18;;;;;;;6.93;4.22;;;;;;;;;;5113854;28;20056;-82
2023/08/08 01:29:46;;;;;;;5.72;4.15;;;;;;;;;;5115233;28;20043;-82
2023/08/08 01:32:13;;;;;;;9.57;4.40;;;;;;;;;;5113048;28;20096;-81
2023/08/08 01:34:40;;;;;;;7.47;4.25;;;;;;;;;;5115203;28;20419;-83
2023/08/08 01:37:11;;;;;;;8.65;4.63;;;;;;;;;;5113786;28;20491;-82
2023/08/08 01:39:39;;;;;;;8.10;4.95;;;;;;;;;;5113925;28;20556;-82
2023/08/08 01:42:07;;;;;;;7.43;4.47;;;;;;;;;;5119659;28;20052;-84
2023/08/08 01:44:34;;;;;;;7.65;4.30;;;;;;;;;;5123059;28;20054;-84
2023/08/08 01:47:02;;;;;;;10.35;4.90;;;;;;;;;;5120768;28;20083;-83
2023/08/08 01:49:29;;;;;;;7.03;4.32;;;;;;;;;;5120719;28;20047;-83
2023/08/08 01:51:56;;;;;;;5.63;4.00;;;;;;;;;;5119839;28;20531;-84
2023/08/08 01:54:24;;;;;;;6.55;4.03;;;;;;;;;;5120987;27;20126;-84
2023/08/08 01:56:51;;;;;;;9.68;4.10;;;;;;;;;;5118765;28;20400;-85
2023/08/08 01:59:19;;;;;;;5.72;4.07;;;;;;;;;;5119201;28;20047;-83
2023/08/08 02:01:46;;;;;;;5.95;4.20;;;;;;;;;;5117320;28;20105;-84
2023/08/08 02:04:13;;;;;;;6.28;4.22;;;;;;;;;;5117254;28;20135;-83
2023/08/08 02:06:40;;;;;;;4.45;3.92;;;;;;;;;;5116700;28;20123;-83
2023/08/08 02:09:08;;;;;;;9.18;4.30;;;;;;;;;;5117381;28;20051;-83
2023/08/08 02:11:35;;;;;;;8.93;4.60;;;;;;;;;;5117889;28;20051;-83
2023/08/08 02:14:02;;;;;;;6.00;4.60;;;;;;;;;;5115745;28;20054;-82
2023/08/08 02:16:30;;;;;;;8.43;4.75;;;;;;;;;;5117513;28;20047;-83
2023/08/08 02:18:57;;;;;;;9.73;4.40;;;;;;;;;;5115109;28;20457;-83
2023/08/08 02:21:24;;;;;;;5.65;4.00;;;;;;;;;;5115696;28;20066;-83
2023/08/08 02:23:51;;;;;;;8.60;4.00;;;;;;;;;;5115997;28;20128;-82
2023/08/08 02:26:19;;;;;;;10.50;4.68;;;;;;;;;;5113182;28;20059;-83
2023/08/08 02:28:46;;;;;;;7.05;4.38;;;;;;;;;;5113015;28;20063;-82
2023/08/08 02:31:20;;;;;;;9.50;4.30;;;;;;;;;;5113923;28;20491;-82
2023/08/08 02:33:50;;;;;;;10.07;5.22;;;;;;;;;;5114146;28;20047;-83
2023/08/08 02:36:18;;;;;;;8.95;4.85;;;;;;;;;;5114076;28;20115;-82
2023/08/08 02:38:46;;;;;;;8.80;4.65;;;;;;;;;;5112408;28;20093;-81
2023/08/08 02:41:13;;;;;;;7.55;4.70;;;;;;;;;;5113029;28;20108;-82
2023/08/08 02:43:40;;;;;;;15.45;5.55;;;;;;;;;;5112173;28;20056;-83
2023/08/08 02:46:07;;;;;;;8.73;5.50;;;;;;;;;;5112805;28;20051;-83
2023/08/08 02:48:35;;;;;;;9.60;5.47;;;;;;;;;;5113778;28;20139;-83
2023/08/08 02:51:02;;;;;;;8.93;5.35;;;;;;;;;;5112004;28;20051;-83
2023/08/08 02:53:29;;;;;;;6.70;5.05;;;;;;;;;;5112442;28;20096;-82
2023/08/08 02:55:56;;;;;;;12.38;5.20;;;;;;;;;;5113216;28;20052;-82
2023/08/08 02:58:24;;;;;;;6.97;4.57;;;;;;;;;;5113521;28;20043;-82
2023/08/08 03:00:52;;;;;;;6.30;4.53;;;;;;;;;;5112011;28;20100;-83
2023/08/08 03:03:19;;;;;;;12.88;5.70;;;;;;;;;;5112266;28;20052;-83
2023/08/08 03:05:47;;;;;;;10.85;5.72;;;;;;;;;;5113666;28;20098;-82
2023/08/08 03:08:14;;;;;;;7.80;5.30;;;;;;;;;;5112264;28;20059;-83
2023/08/08 03:10:41;;;;;;;14.43;6.00;;;;;;;;;;5112385;28;20066;-82
2023/08/08 03:13:08;;;;;;;9.40;5.18;;;;;;;;;;5112661;28;20131;-82
2023/08/08 03:15:36;;;;;;;11.43;6.05;;;;;;;;;;5113990;28;20115;-82
2023/08/08 03:18:03;;;;;;;12.48;5.60;;;;;;;;;;5122386;28;20078;-85
2023/08/08 03:20:31;;;;;;;9.25;5.00;;;;;;;;;;5120122;28;20139;-82
2023/08/08 03:22:58;;;;;;;9.32;5.85;;;;;;;;;;5119420;28;20047;-84
2023/08/08 03:25:25;;;;;;;7.65;4.82;;;;;;;;;;5119234;28;20048;-85
2023/08/08 03:27:52;;;;;;;7.20;5.25;;;;;;;;;;5118437;28;20193;-84
2023/08/08 03:30:20;;;;;;;8.48;5.43;;;;;;;;;;5117474;28;20051;-84
2023/08/08 03:32:47;;;;;;;9.77;5.57;;;;;;;;;;5116816;28;20048;-83
2023/08/08 03:35:14;;;;;;;7.40;5.38;;;;;;;;;;5117992;28;20043;-84
2023/08/08 03:37:42;;;;;;;12.80;6.13;;;;;;;;;;5117226;28;20495;-83
2023/08/08 03:40:10;;;;;;;13.90;5.97;;;;;;;;;;5117733;28;20047;-84
2023/08/08 03:42:37;;;;;;;13.20;5.63;;;;;;;;;;5116542;28;20101;-83
2023/08/08 03:45:04;;;;;;;8.48;6.45;;;;;;;;;;5116196;28;20062;-84
2023/08/08 03:47:31;;;;;;;8.57;5.35;;;;;;;;;;5116575;28;20056;-84
2023/08/08 03:49:59;;;;;;;10.65;6.65;;;;;;;;;;5116875;28;20054;-85
2023/08/08 03:52:26;;;;;;;9.60;5.65;;;;;;;;;;5117564;28;20278;-84
2023/08/08 03:54:53;;;;;;;8.35;5.55;;;;;;;;;;5114611;28;20096;-84
2023/08/08 03:57:20;;;;;;;7.13;5.10;;;;;;;;;;5118230;28;20039;-84
2023/08/08 03:59:48;;;;;;;7.82;5.38;;;;;;;;;;5117286;28;20085;-83
2023/08/08 04:02:15;;;;;;;5.95;5.45;;;;;;;;;;5115361;28;20059;-82
2023/08/08 04:04:42;;;;;;;7.05;5.30;;;;;;;;;;5115483;28;20051;-81
2023/08/08 04:07:09;;;;;;;10.90;6.22;;;;;;;;;;5116978;28;20071;-81
2023/08/08 04:09:36;;;;;;;10.45;5.35;;;;;;;;;;5115898;28;20059;-83
2023/08/08 04:12:04;;;;;;;12.32;5.97;;;;;;;;;;5116588;28;20048;-83
2023/08/08 04:14:31;;;;;;;12.85;5.70;;;;;;;;;;5115770;28;20105;-81
2023/08/08 04:16:59;;;;;;;5.30;4.70;;;;;;;;;;5116412;28;20128;-82
2023/08/08 04:19:26;;;;;;;9.27;5.28;;;;;;;;;;5117099;28;20043;-82
2023/08/08 04:21:53;;;;;;;6.75;5.15;;;;;;;;;;5116523;28;20044;-81
2023/08/08 04:24:20;;;;;;;5.32;4.68;;;;;;;;;;5115499;28;20518;-81
2023/08/08 04:26:48;;;;;;;7.50;5.53;;;;;;;;;;5116660;28;20056;-83
2023/08/08 04:29:15;;;;;;;12.65;5.70;;;;;;;;;;5115102;28;20472;-81
2023/08/08 04:31:42;;;;;;;11.07;5.50;;;;;;;;;;5114877;28;20092;-83
2023/08/08 04:34:10;;;;;;;5.68;5.07;;;;;;;;;;5116761;28;20047;-80
2023/08/08 04:36:37;;;;;;;10.20;5.88;;;;;;;;;;5115075;28;20044;-82
2023/08/08 04:39:05;;;;;;;8.38;5.10;;;;;;;;;;5114724;28;20406;-82
2023/08/08 04:41:32;;;;;;;7.38;5.60;;;;;;;;;;5116128;27;20058;-81
2023/08/08 04:43:59;;;;;;;10.25;6.05;;;;;;;;;;5114397;28;20055;-82
2023/08/08 04:46:26;;;;;;;11.10;6.10;;;;;;;;;;5114980;28;20059;-82
2023/08/08 04:48:54;;;;;;;9.85;6.03;;;;;;;;;;5115603;28;20055;-82
2023/08/08 04:51:22;;;;;;;11.00;5.28;;;;;;;;;;5119592;28;20154;-82
2023/08/08 04:53:49;;;;;;;8.77;5.30;;;;;;;;;;5122348;28;20044;-84
2023/08/08 04:56:16;;;;;;;11.65;6.10;;;;;;;;;;5120931;27;20111;-84
2023/08/08 04:58:44;;;;;;;12.68;6.53;;;;;;;;;;5120825;28;20051;-83
2023/08/08 05:01:14;;;;;;;17.42;6.32;;;;;;;;;;5119436;28;20131;-84
2023/08/08 05:03:41;;;;;;;15.13;7.10;;;;;;;;;;5118207;28;20055;-83
2023/08/08 05:06:09;;;;;;;9.10;5.30;;;;;;;;;;5117571;28;20044;-82
2023/08/08 05:08:36;;;;;;;7.63;5.25;;;;;;;;;;5118013;28;20055;-80
2023/08/08 05:11:03;;;;;;;13.13;6.03;;;;;;;;;;5117051;28;20112;-82
2023/08/08 05:13:30;;;;;;;8.82;5.82;;;;;;;;;;5118706;28;20533;-83
2023/08/08 05:15:57;;;;;;;7.50;6.18;;;;;;;;;;5117620;28;20051;-83
2023/08/08 05:18:25;;;;;;;10.98;6.47;;;;;;;;;;5116544;28;20044;-83
2023/08/08 05:20:52;;;;;;;7.20;6.25;;;;;;;;;;5117869;28;20055;-79
2023/08/08 05:23:19;;;;;;;8.90;7.95;;;;;;;;;;5117430;28;20044;-83
2023/08/08 05:25:46;;;;;;;7.05;6.35;;;;;;;;;;5116654;28;20143;-83
2023/08/08 05:28:14;;;;;;;10.48;6.78;;;;;;;;;;5117098;28;20051;-83
2023/08/08 05:30:41;;;;;;;10.75;6.68;;;;;;;;;;5117318;28;20071;-81
2023/08/08 05:33:08;;;;;;;15.30;9.48;;;;;;;;;;5115190;28;20075;-83
2023/08/08 05:35:36;;;;;;;23.52;12.23;;;;;;;;;;5115043;28;20522;-80
2023/08/08 05:38:03;;;;;;;33.78;16.42;;;;;;;;;;5114336;28;20047;-82
2023/08/08 05:40:30;;;;;;;36.80;18.90;;;;;;;;;;5114530;28;20052;-80
2023/08/08 05:42:57;;;;;;;21.98;12.10;;;;;;;;;;5116524;28;20556;-81
2023/08/08 05:45:25;;;;;;;10.13;7.32;;;;;;;;;;5114533;28;20039;-81
2023/08/08 05:47:52;;;;;;;9.18;7.05;;;;;;;;;;5116000;28;20039;-82
2023/08/08 05:50:19;;;;;;;7.30;6.60;;;;;;;;;;5113690;28;20127;-80
2023/08/08 05:52:47;;;;;;;7.82;6.65;;;;;;;;;;5113558;28;20580;-80
2023/08/08 05:55:14;;;;;;;36.08;25.35;;;;;;;;;;5114012;28;20044;-80
2023/08/08 05:57:41;;;;;;;23.63;17.63;;;;;;;;;;5115573;28;20122;-80
2023/08/08 06:00:11;;;;;;;10.68;9.52;;;;;;;;;;5113529;28;20436;-80
2023/08/08 06:02:38;;;;;;;6.80;4.38;;;;;;;;;;5115000;28;20427;-81
2023/08/08 06:05:06;;;;;;;5.53;5.13;;;;;;;;;;5113631;28;20055;-80
2023/08/08 06:07:33;;;;;;;4.25;3.72;;;;;;;;;;5114188;28;20043;-81
2023/08/08 06:10:00;;;;;;;4.88;3.20;;;;;;;;;;5113576;28;20058;-80
2023/08/08 06:12:28;;;;;;;3.38;2.53;;;;;;;;;;5114684;28;20412;-81
2023/08/08 06:14:55;;;;;;;16.45;3.30;;;;;;;;;;5116823;28;20044;-81
2023/08/08 06:17:23;;;;;;;4.93;2.42;;;;;;;;;;5114612;28;20098;-79
2023/08/08 06:19:50;;;;;;;5.55;2.47;;;;;;;;;;5116335;28;20054;-80
2023/08/08 06:22:18;;;;;;;2.92;2.72;;;;;;;;;;5114641;28;20056;-81
2023/08/08 06:24:46;;;;;;;3.67;2.83;;;;;;;;;;5115378;28;20055;-79
2023/08/08 06:27:14;;;;;;;3.88;2.50;;;;;;;;;;5121303;28;20100;-81
2023/08/08 06:29:41;;;;;;;2.95;2.38;;;;;;;;;;5121060;28;20119;-80
2023/08/08 06:32:08;;;;;;;4.60;1.80;;;;;;;;;;5122324;28;20044;-83
2023/08/08 06:34:35;;;;;;;3.58;1.90;;;;;;;;;;5124250;28;20040;-82
2023/08/08 06:37:03;;;;;;;4.95;1.70;;;;;;;;;;5123819;28;20095;-82
2023/08/08 06:39:31;;;;;;;3.58;1.70;;;;;;;;;;5125610;28;20073;-81
2023/08/08 06:41:58;;;;;;;1.48;1.38;;;;;;;;;;5123110;28;20047;-82
2023/08/08 06:44:26;;;;;;;3.72;1.50;;;;;;;;;;5123201;28;20051;-82
2023/08/08 06:46:53;;;;;;;1.67;1.58;;;;;;;;;;5122098;28;20055;-80
2023/08/08 06:49:20;;;;;;;4.32;1.60;;;;;;;;;;5121483;28;20047;-83
2023/08/08 06:51:47;;;;;;;2.10;1.48;;;;;;;;;;5121158;28;20052;-81
2023/08/08 06:54:14;;;;;;;1.38;1.27;;;;;;;;;;5119561;28;20052;-82
2023/08/08 06:56:42;;;;;;;5.20;2.08;;;;;;;;;;5121567;28;20048;-82
2023/08/08 06:59:09;;;;;;;2.85;1.50;;;;;;;;;;5119076;28;20103;-83
2023/08/08 07:01:36;;;;;;;3.08;1.75;;;;;;;;;;5118475;28;20047;-82
2023/08/08 07:04:04;;;;;;;4.50;1.38;;;;;;;;;;5119671;28;20400;-81
2023/08/08 07:06:31;;;;;;;2.17;1.60;;;;;;;;;;5118838;28;20048;-82
2023/08/08 07:08:58;;;;;;;2.83;2.63;;;;;;;;;;5116851;28;20051;-83
2023/08/08 07:11:26;;;;;;;1.67;1.25;;;;;;;;;;5120094;28;20050;-83
2023/08/08 07:13:53;;;;;;;1.73;1.00;;;;;;;;;;5127311;28;20043;-80
2023/08/08 07:16:20;;;;;;;1.60;1.10;;;;;;;;;;5123988;28;20086;-82
2023/08/08 07:18:48;;;;;;;1.30;1.08;;;;;;;;;;5124131;28;20078;-82
2023/08/08 07:21:20;;;;;;;2.08;1.08;;;;;;;;;;5122171;28;20043;-82
2023/08/08 07:23:47;;;;;;;2.95;1.23;;;;;;;;;;5124074;28;20062;-81
2023/08/08 07:26:15;;;;;;;3.95;1.63;;;;;;;;;;5118655;28;20110;-81
2023/08/08 07:28:42;;;;;;;2.92;1.23;;;;;;;;;;5119649;28;20329;-82
2023/08/08 07:31:09;;;;;;;3.05;1.00;;;;;;;;;;5117985;28;20048;-81
2023/08/08 07:33:36;;;;;;;4.03;1.25;;;;;;;;;;5118620;28;20116;-82
2023/08/08 07:36:04;;;;;;;1.15;0.80;;;;;;;;;;5116124;28;20044;-81
2023/08/08 07:38:33;;;;;;;4.63;1.00;;;;;;;;;;5119774;28;20046;-83
2023/08/08 07:41:00;;;;;;;1.45;0.90;;;;;;;;;;5118592;28;20066;-80
2023/08/08 07:43:27;;;;;;;1.02;1.00;;;;;;;;;;5116020;28;20104;-80
2023/08/08 07:45:55;;;;;;;1.00;0.80;;;;;;;;;;5117049;28;20047;-79
2023/08/08 07:48:22;;;;;;;1.15;0.82;;;;;;;;;;5117617;28;20058;-80
2023/08/08 07:50:49;;;;;;;3.22;0.90;;;;;;;;;;5115035;28;20047;-81
2023/08/08 07:53:16;;;;;;;1.20;0.75;;;;;;;;;;5116048;28;20050;-80
2023/08/08 07:55:44;;;;;;;4.28;1.00;;;;;;;;;;5115537;28;20043;-81
2023/08/08 07:58:11;;;;;;;1.67;0.90;;;;;;;;;;5115427;28;20492;-82
2023/08/08 08:00:38;;;;;;;2.15;0.80;;;;;;;;;;5114683;28;20086;-80
2023/08/08 08:03:06;;;;;;;3.50;1.17;;;;;;;;;;5124502;28;20051;-81
2023/08/08 08:05:34;;;;;;;2.38;1.00;;;;;;;;;;5125639;28;20069;-83
2023/08/08 08:08:02;;;;;;;6.03;1.48;;;;;;;;;;5124377;28;20047;-82
2023/08/08 08:10:29;;;;;;;2.88;0.98;;;;;;;;;;5122184;28;20051;-81
2023/08/08 08:12:58;;;;;;;2.40;1.00;;;;;;;;;;5122018;28;20043;-81
2023/08/08 08:15:26;;;;;;;1.38;1.00;;;;;;;;;;5122822;28;20058;-81
2023/08/08 08:17:53;;;;;;;3.75;0.85;;;;;;;;;;5122043;28;20130;-82
2023/08/08 08:20:21;;;;;;;2.00;1.02;;;;;;;;;;5122450;28;20044;-81
2023/08/08 08:22:48;;;;;;;2.38;0.88;;;;;;;;;;5119617;28;20051;-79
2023/08/08 08:25:16;;;;;;;4.57;1.10;;;;;;;;;;5118731;28;20055;-83
2023/08/08 08:27:43;;;;;;;2.13;1.17;;;;;;;;;;5118817;28;20101;-81
2023/08/08 08:30:10;;;;;;;1.20;1.10;;;;;;;;;;5119621;28;20514;-81
2023/08/08 08:32:39;;;;;;;1.35;1.20;;;;;;;;;;5117010;28;20048;-80
2023/08/08 08:35:07;;;;;;;4.28;1.40;;;;;;;;;;5116746;28;20487;-82
2023/08/08 08:37:35;;;;;;;1.58;1.15;;;;;;;;;;5115501;28;20047;-80
2023/08/08 08:40:04;;;;;;;2.47;1.20;;;;;;;;;;5115351;28;20050;-80
2023/08/08 08:42:33;;;;;;;1.35;0.90;;;;;;;;;;5117769;28;20494;-80
2023/08/08 08:45:02;;;;;;;4.53;1.30;;;;;;;;;;5120412;28;20051;-80
2023/08/08 08:47:31;;;;;;;3.70;0.90;;;;;;;;;;5122163;28;20128;-81
2023/08/08 08:49:58;;;;;;;3.53;1.10;;;;;;;;;;5124387;28;20055;-82
2023/08/08 08:52:26;;;;;;;1.85;1.20;;;;;;;;;;5125981;28;20075;-82
2023/08/08 08:54:54;;;;;;;1.33;0.75;;;;;;;;;;5121420;28;20100;-82
2023/08/08 08:57:24;;;;;;;1.70;0.77;;;;;;;;;;5118303;28;20491;-81
2023/08/08 08:59:52;;;;;;;2.28;1.00;;;;;;;;;;5120555;28;20044;-79
2023/08/08 09:02:19;;;;;;;2.17;0.95;;;;;;;;;;5121338;28;20051;-82
2023/08/08 09:04:47;;;;;;;1.25;0.75;;;;;;;;;;5121284;28;20101;-82
2023/08/08 09:07:15;;;;;;;2.03;0.80;;;;;;;;;;5120235;28;20100;-81
2023/08/08 09:09:45;;;;;;;2.80;0.80;;;;;;;;;;5123220;28;20051;-82
2023/08/08 09:12:12;;;;;;;1.13;1.02;;;;;;;;;;5120238;28;20411;-81
2023/08/08 09:14:41;;;;;;;2.75;0.65;;;;;;;;;;5121073;28;20047;-83
2023/08/08 09:17:15;;;;;;;5.68;0.93;;;;;;;;;;5119092;28;20061;-79
2023/08/08 09:19:46;;;;;;;0.80;0.80;;;;;;;;;;5117588;28;20054;-80
2023/08/08 09:22:14;;;;;;;0.95;0.90;;;;;;;;;;5117450;28;20051;-81
2023/08/08 09:24:41;;;;;;;2.47;0.90;;;;;;;;;;5116937;28;20052;-79
2023/08/08 09:27:09;;;;;;;1.98;0.80;;;;;;;;;;5118138;28;20059;-79
2023/08/08 09:29:37;;;;;;;2.35;1.02;;;;;;;;;;5116474;28;20126;-81
2023/08/08 09:32:05;;;;;;;2.75;1.00;;;;;;;;;;5117178;28;20044;-80
2023/08/08 09:34:33;;;;;;;2.08;0.88;;;;;;;;;;5116172;28;20503;-80
2023/08/08 09:37:01;;;;;;;1.92;0.93;;;;;;;;;;5119785;28;20043;-79
2023/08/08 09:39:29;;;;;;;6.95;1.13;;;;;;;;;;5124673;28;20047;-80
2023/08/08 09:41:57;;;;;;;1.67;0.90;;;;;;;;;;5123715;28;20048;-83
2023/08/08 09:44:26;;;;;;;1.65;1.05;;;;;;;;;;5124691;28;20051;-81
2023/08/08 09:46:53;;;;;;;2.92;1.13;;;;;;;;;;5123977;28;20143;-82
2023/08/08 09:49:21;;;;;;;2.88;0.90;;;;;;;;;;5123462;28;20069;-82
2023/08/08 09:51:49;;;;;;;0.82;0.70;;;;;;;;;;5125194;28;20114;-83
2023/08/08 09:54:17;;;;;;;1.83;0.90;;;;;;;;;;5121531;28;20457;-83
2023/08/08 09:56:45;;;;;;;1.65;0.80;;;;;;;;;;5121831;28;20052;-82
2023/08/08 09:59:12;;;;;;;3.22;1.00;;;;;;;;;;5123533;28;20461;-80
2023/08/08 10:01:41;;;;;;;1.83;1.00;;;;;;;;;;5122107;28;20059;-80
2023/08/08 10:04:10;;;;;;;1.80;0.90;;;;;;;;;;5121647;28;20115;-82
2023/08/08 10:06:37;;;;;;;2.15;0.90;;;;;;;;;;5122087;28;20047;-81
2023/08/08 10:09:05;;;;;;;1.25;1.08;;;;;;;;;;5122284;28;20051;-80
2023/08/08 10:11:32;;;;;;;1.30;1.20;;;;;;;;;;5121488;28;20040;-81
2023/08/08 10:14:02;;;;;;;2.25;1.20;;;;;;;;;;5120224;28;20115;-82
2023/08/08 10:16:32;;;;;;;1.23;1.15;;;;;;;;;;5120676;28;20062;-80
2023/08/08 10:19:01;;;;;;;1.83;1.13;;;;;;;;;;5118137;28;20048;-80
2023/08/08 10:21:28;;;;;;;1.35;0.88;;;;;;;;;;5118743;28;20564;-80
2023/08/08 10:24:06;;;;;;;2.33;1.10;;;;;;;;;;5118667;28;20423;-80
2023/08/08 10:26:34;;;;;;;2.80;1.25;;;;;;;;;;5119249;28;20044;-82
2023/08/08 10:29:02;;;;;;;2.03;1.20;;;;;;;;;;5119255;28;20097;-80
2023/08/08 10:31:34;;;;;;;2.72;1.10;;;;;;;;;;5119199;28;20096;-81
2023/08/08 10:34:03;;;;;;;1.77;1.17;;;;;;;;;;5119166;28;20044;-80
2023/08/08 10:36:44;;;;;;;1.52;1.05;;;;;;;;;;5117979;28;20044;-81
2023/08/08 10:39:18;;;;;;;1.85;1.13;;;;;;;;;;5116333;28;20470;-81
2023/08/08 10:41:47;;;;;;;1.45;1.33;;;;;;;;;;5117503;28;20140;-81
2023/08/08 10:44:14;;;;;;;2.10;1.10;;;;;;;;;;5117280;28;20043;-80
2023/08/08 10:46:42;;;;;;;1.90;1.42;;;;;;;;;;5118330;28;20044;-81
2023/08/08 10:49:14;;;;;;;3.13;1.13;;;;;;;;;;5116427;28;20047;-81
2023/08/08 10:51:45;;;;;;;2.75;1.02;;;;;;;;;;5116372;28;20058;-81
2023/08/08 10:54:14;;;;;;;2.15;0.95;;;;;;;;;;5116019;28;20411;-80
2023/08/08 10:56:41;;;;;;;2.13;1.02;;;;;;;;;;5115370;28;20047;-81
2023/08/08 10:59:35;;;;;;;2.17;0.80;;;;;;;;;;5116419;28;20100;-80
2023/08/08 11:02:02;;;;;;;1.17;1.15;;;;;;;;;;5113342;28;20642;-81
2023/08/08 11:04:32;;;;;;;2.38;1.00;;;;;;;;;;5115197;28;20047;-80
2023/08/08 11:06:59;;;;;;;0.80;0.80;;;;;;;;;;5116559;28;20050;-79
2023/08/08 11:09:27;;;;;;;1.35;0.90;;;;;;;;;;5115050;28;20468;-80
2023/08/08 11:11:54;;;;;;;3.33;1.05;;;;;;;;;;5116453;28;20044;-81
2023/08/08 11:14:22;;;;;;;2.05;0.90;;;;;;;;;;5120825;28;20047;-83
2023/08/08 11:16:50;;;;;;;1.08;0.70;;;;;;;;;;5121594;28;20048;-81
2023/08/08 11:19:19;;;;;;;2.55;1.10;;;;;;;;;;5119703;28;20127;-81
2023/08/08 11:21:47;;;;;;;4.10;0.90;;;;;;;;;;5121199;28;20054;-81
2023/08/08 11:24:15;;;;;;;1.80;1.00;;;;;;;;;;5120169;28;20115;-81
2023/08/08 11:26:43;;;;;;;1.15;0.80;;;;;;;;;;5118706;28;20063;-82
2023/08/08 11:29:11;;;;;;;1.02;0.93;;;;;;;;;;5118349;28;20050;-81
2023/08/08 11:31:38;;;;;;;2.65;1.10;;;;;;;;;;5119154;28;20073;-80
2023/08/08 11:34:06;;;;;;;1.38;0.88;;;;;;;;;;5119081;28;20104;-81
2023/08/08 11:36:34;;;;;;;1.20;0.95;;;;;;;;;;5117288;28;20055;-81
2023/08/08 11:39:09;;;;;;;2.58;1.00;;;;;;;;;;5118299;28;20078;-81
2023/08/08 11:41:37;;;;;;;1.75;1.10;;;;;;;;;;5116536;28;20043;-80
2023/08/08 11:44:05;;;;;;;0.98;0.85;;;;;;;;;;5115056;28;20096;-81
2023/08/08 11:46:32;;;;;;;2.13;1.10;;;;;;;;;;5114634;28;20051;-82
2023/08/08 11:49:06;;;;;;;1.02;0.80;;;;;;;;;;5116007;28;20051;-79
2023/08/08 11:51:34;;;;;;;2.05;1.00;;;;;;;;;;5113753;28;20082;-82
2023/08/08 11:54:06;;;;;;;2.60;1.08;;;;;;;;;;5113512;28;20056;-82
2023/08/08 11:56:34;;;;;;;2.60;1.20;;;;;;;;;;5114662;28;20104;-82
2023/08/08 11:59:01;;;;;;;2.15;1.00;;;;;;;;;;5117883;28;20135;-80
2023/08/08 12:01:31;;;;;;;1.60;0.95;;;;;;;;;;5116582;28;20050;-80
2023/08/08 12:03:59;;;;;;;9.55;1.30;;;;;;;;;;5116000;28;20052;-78
2023/08/08 12:06:30;;;;;;;1.95;0.90;;;;;;;;;;5115382;28;20082;-80
2023/08/08 12:08:57;;;;;;;1.52;0.95;;;;;;;;;;5116758;28;20043;-80
2023/08/08 12:11:24;;;;;;;1.27;1.00;;;;;;;;;;5115584;28;20055;-81
2023/08/08 12:13:59;;;;;;;1.00;0.90;;;;;;;;;;5114982;28;20048;-79
2023/08/08 12:16:29;;;;;;;5.40;0.98;;;;;;;;;;5115432;28;20054;-80
2023/08/08 12:19:03;;;;;;;1.83;1.00;;;;;;;;;;5117036;28;20070;-79
2023/08/08 12:21:32;;;;;;;5.20;1.13;;;;;;;;;;5117415;28;20112;-80
2023/08/08 12:24:00;;;;;;;0.93;0.80;;;;;;;;;;5120269;28;20051;-79
2023/08/08 12:26:27;;;;;;;1.23;0.95;;;;;;;;;;5117649;28;20473;-79
2023/08/08 12:28:55;;;;;;;3.17;0.70;;;;;;;;;;5118338;28;20534;-79
2023/08/08 12:31:22;;;;;;;1.00;0.73;;;;;;;;;;5118010;28;20066;-79
2023/08/08 12:33:49;;;;;;;1.65;0.80;;;;;;;;;;5116079;28;20051;-78
2023/08/08 12:36:18;;;;;;;2.95;0.90;;;;;;;;;;5116912;28;20048;-80
2023/08/08 12:38:46;;;;;;;2.20;0.85;;;;;;;;;;5118023;28;20077;-78
2023/08/08 12:41:14;;;;;;;10.15;1.42;;;;;;;;;;5117528;28;20050;-81
2023/08/08 12:43:41;;;;;;;2.33;1.02;;;;;;;;;;5117194;28;20043;-79
2023/08/08 12:46:08;;;;;;;3.58;1.25;;;;;;;;;;5117733;28;20088;-78
2023/08/08 12:48:36;;;;;;;5.45;1.13;;;;;;;;;;5115383;28;20126;-79
2023/08/08 12:51:04;;;;;;;5.03;1.33;;;;;;;;;;5121700;28;20130;-81
2023/08/08 12:53:32;;;;;;;1.60;1.13;;;;;;;;;;5124808;28;20040;-80
2023/08/08 12:55:59;;;;;;;2.38;0.90;;;;;;;;;;5122723;28;20093;-81
2023/08/08 12:58:26;;;;;;;1.90;1.08;;;;;;;;;;5122594;28;20052;-80
2023/08/08 13:00:54;;;;;;;3.38;1.00;;;;;;;;;;5122618;28;20480;-81
2023/08/08 13:03:21;;;;;;;1.60;1.00;;;;;;;;;;5121084;28;20427;-81
2023/08/08 13:05:48;;;;;;;3.15;0.80;;;;;;;;;;5121447;28;20458;-81
2023/08/08 13:08:15;;;;;;;5.25;1.05;;;;;;;;;;5119784;28;20051;-80
2023/08/08 13:10:43;;;;;;;5.35;0.90;;;;;;;;;;5119431;28;20051;-81
2023/08/08 13:13:10;;;;;;;1.60;0.93;;;;;;;;;;5118800;28;20044;-80
2023/08/08 13:15:38;;;;;;;5.18;1.50;;;;;;;;;;5120151;28;20065;-81
2023/08/08 13:18:05;;;;;;;6.38;1.20;;;;;;;;;;5118229;28;20044;-81
2023/08/08 13:20:32;;;;;;;2.42;1.00;;;;;;;;;;5118994;28;20044;-79
2023/08/08 13:22:59;;;;;;;9.73;1.38;;;;;;;;;;5117518;28;20048;-81
2023/08/08 13:25:27;;;;;;;1.27;1.13;;;;;;;;;;5116695;28;20055;-79
2023/08/08 13:27:54;;;;;;;2.03;1.25;;;;;;;;;;5117065;28;20079;-80
2023/08/08 13:30:21;;;;;;;1.23;0.90;;;;;;;;;;5117201;28;20047;-81
2023/08/08 13:32:48;;;;;;;1.52;1.17;;;;;;;;;;5117496;28;20131;-82
2023/08/08 13:35:16;;;;;;;10.10;1.42;;;;;;;;;;5115363;28;20043;-80
2023/08/08 13:37:45;;;;;;;4.78;1.23;;;;;;;;;;5116053;28;20047;-79
2023/08/08 13:40:12;;;;;;;2.60;1.10;;;;;;;;;;5117932;28;20101;-80
2023/08/08 13:42:39;;;;;;;6.07;1.10;;;;;;;;;;5116733;28;20096;-82
2023/08/08 13:45:07;;;;;;;3.28;1.10;;;;;;;;;;5118131;28;20044;-80
2023/08/08 13:47:35;;;;;;;5.00;1.27;;;;;;;;;;5115857;28;20461;-79
2023/08/08 13:50:02;;;;;;;3.30;1.23;;;;;;;;;;5116896;28;20134;-81
2023/08/08 13:52:32;;;;;;;5.07;1.40;;;;;;;;;;5114701;28;20051;-80
2023/08/08 13:55:00;;;;;;;1.90;1.10;;;;;;;;;;5115160;28;20058;-80
2023/08/08 13:57:27;;;;;;;3.22;1.33;;;;;;;;;;5114796;28;20047;-80
2023/08/08 13:59:54;;;;;;;1.55;0.90;;;;;;;;;;5115528;28;20058;-80
2023/08/08 14:02:21;;;;;;;4.35;1.30;;;;;;;;;;5116169;28;20464;-79
2023/08/08 14:04:49;;;;;;;1.52;1.00;;;;;;;;;;5115963;28;20541;-80
2023/08/08 14:07:16;;;;;;;3.17;1.40;;;;;;;;;;5115263;28;20082;-80
2023/08/08 14:09:43;;;;;;;2.53;1.95;;;;;;;;;;5115675;28;20102;-81
2023/08/08 14:12:11;;;;;;;15.60;2.33;;;;;;;;;;5115265;28;20043;-81
2023/08/08 14:14:38;;;;;;;3.13;1.90;;;;;;;;;;5113673;28;20052;-80
2023/08/08 14:17:06;;;;;;;3.00;1.50;;;;;;;;;;5114130;28;20420;-80
2023/08/08 14:19:33;;;;;;;3.13;2.78;;;;;;;;;;5113595;28;20048;-80
2023/08/08 14:22:00;;;;;;;4.30;3.30;;;;;;;;;;5114570;28;20048;-80
2023/08/08 14:24:28;;;;;;;2.75;0.90;;;;;;;;;;5114155;28;20534;-80
2023/08/08 14:26:55;;;;;;;1.55;1.15;;;;;;;;;;5118246;28;20089;-81
2023/08/08 14:29:23;;;;;;;8.15;4.43;;;;;;;;;;5124486;28;20051;-81
2023/08/08 14:31:50;;;;;;;2.00;1.20;;;;;;;;;;5121293;28;20400;-81
2023/08/08 14:34:33;;;;;;;8.77;6.65;;;;;;;;;;5122553;28;20103;-82
2023/08/08 14:37:01;;;;;;;8.73;4.50;;;;;;;;;;5120754;28;20047;-82
2023/08/08 14:39:29;;;;;;;2.58;1.70;;;;;;;;;;5118881;28;20040;-82
2023/08/08 14:41:56;;;;;;;6.70;0.75;;;;;;;;;;5118630;28;20127;-81
2023/08/08 14:44:24;;;;;;;18.58;11.27;;;;;;;;;;5122107;28;20079;-80